Boheme — 9V8514 — position and weather

sailwx.info

Track history (hours):
 
Tides and Currents Weather Stations Pressure Air Temp Water Temp Dewpoint Dewpoint Depression Visibility Wind Speed Wind Dir Waves Ship Positions

Boheme

Last reported at 2018-Apr-21 01:01 UTC. Time now 2018-Apr-21 15:28 UTC.
Position N 01°17' E 103°21'.

Length 227 m; draft 9.3 m.

Type: Cargo ship. MMSI: 563262000.

Date/timePositionNaut miles runAvg speedWind from/ knotsBaromVisibWave heightAir tempDewpointWater temp
2018-Apr-21 01:01N 01°17' E 103°21'013.1
2018-Apr-21 00:59N 01°17' E 103°21'1018.1
2018-Apr-21 00:26N 01°13' E 103°30'817.4
2018-Apr-21 00:00N 01°11' E 103°38'714.7
2018-Apr-20 23:30N 01°09' E 103°45'612.4
2018-Apr-20 23:00N 01°11' E 103°50'3 6.4
2018-Apr-20 22:30N 01°14' E 103°53'510.3
2018-Apr-20 21:59N 01°15' E 103°58'3 1.3
2018-Apr-20 20:03N 01°17' E 103°59'0 0.0
2018-Apr-20 19:45N 01°17' E 103°59'0 0.0
2018-Apr-20 19:27N 01°17' E 103°59'0 0.0
2018-Apr-20 17:30N 01°17' E 103°59'0 0.0
2018-Apr-20 16:51N 01°17' E 103°59'0 0.0
2018-Apr-20 16:27N 01°17' E 103°59'0 0.0
2018-Apr-20 15:54N 01°17' E 103°59'0 0.0
2018-Apr-20 15:09N 01°17' E 103°59'0 0.0
2018-Apr-20 14:39N 01°17' E 103°59'0 0.0
2018-Apr-20 05:57N 01°17' E 103°59'0 0.0
2018-Apr-20 04:54N 01°17' E 103°59'0 0.0
2018-Apr-20 04:30N 01°17' E 103°59'0 0.0
2018-Apr-20 03:57N 01°17' E 103°59'0 0.1
2018-Apr-20 03:06N 01°17' E 103°59'1 4.5
2018-Apr-20 02:56N 01°16' E 103°58'1 1.8
2018-Apr-20 02:25N 01°16' E 103°59'2 4.8
2018-Apr-20 01:59N 01°16' E 104°01'  
2018-Apr-13 10:37N 34°32' E 137°02'1 9.3
2018-Apr-13 10:30N 34°33' E 137°01'713.8
2018-Apr-13 09:58N 34°37' E 136°54'1616.6
2018-Apr-13 09:00N 34°52' E 136°45'714.3
2018-Apr-13 08:30N 34°58' E 136°48'610.8
2018-Apr-13 07:58N 35°03' E 136°53'0 0.5
2018-Apr-13 07:28N 35°03' E 136°53'0 0.0
2018-Apr-13 06:58N 35°03' E 136°53'0 0.0
2018-Apr-13 06:28N 35°03' E 136°53'0 0.0
2018-Apr-13 05:58N 35°03' E 136°53'0 0.0
2018-Apr-13 05:28N 35°03' E 136°53'0 0.0
2018-Apr-13 04:58N 35°03' E 136°53'0 0.0
2018-Apr-13 04:28N 35°03' E 136°53'0 0.1
2018-Apr-13 03:55N 35°03' E 136°53'0 0.1
2018-Apr-13 03:28N 35°03' E 136°53'0 0.0
2018-Apr-13 02:58N 35°03' E 136°53'0 0.0
2018-Apr-13 02:28N 35°03' E 136°53'0 0.0
2018-Apr-13 01:55N 35°03' E 136°53'0 0.0
2018-Apr-13 01:25N 35°03' E 136°53'0 0.0
2018-Apr-13 00:58N 35°03' E 136°53'0 0.0
2018-Apr-13 00:28N 35°03' E 136°53'0 0.0
2018-Apr-12 23:58N 35°03' E 136°53'0 0.0
2018-Apr-12 23:31N 35°03' E 136°53'0 0.0
2018-Apr-12 23:00N 35°03' E 136°53'0 0.0
2018-Apr-12 22:30N 35°03' E 136°53'0 0.0
2018-Apr-12 22:00N 35°03' E 136°53'0 0.0
2018-Apr-12 21:30N 35°03' E 136°53'0 0.0
2018-Apr-12 21:00N 35°03' E 136°53'0 0.0
2018-Apr-12 20:27N 35°03' E 136°53'0 0.0
2018-Apr-12 20:00N 35°03' E 136°53'0 0.0
2018-Apr-12 19:30N 35°03' E 136°53'0 0.0
2018-Apr-12 19:00N 35°03' E 136°53'0 0.0
2018-Apr-12 18:30N 35°03' E 136°53'0 0.1
2018-Apr-12 18:00N 35°03' E 136°53'0 0.1
2018-Apr-12 17:30N 35°03' E 136°53'0 0.0
2018-Apr-12 17:00N 35°03' E 136°53'0 0.1
2018-Apr-12 16:30N 35°03' E 136°53'0 0.0
2018-Apr-12 16:00N 35°03' E 136°53'0 0.0
2018-Apr-12 15:30N 35°03' E 136°53'0 0.0
2018-Apr-12 15:00N 35°03' E 136°53'0 0.0
2018-Apr-12 14:30N 35°03' E 136°53'0 0.0
2018-Apr-12 14:00N 35°03' E 136°53'0 0.1
2018-Apr-12 13:30N 35°03' E 136°53'0 0.1
2018-Apr-12 13:00N 35°03' E 136°53'0 0.1
2018-Apr-12 12:30N 35°03' E 136°53'0 0.1
2018-Apr-12 12:00N 35°03' E 136°53'0 0.1
2018-Apr-12 11:30N 35°03' E 136°53'0 0.0
2018-Apr-12 11:00N 35°03' E 136°53'0 0.1
2018-Apr-12 10:30N 35°03' E 136°53'0 0.1
2018-Apr-12 10:00N 35°03' E 136°53'0 0.0
2018-Apr-12 09:27N 35°03' E 136°53'0 0.0
2018-Apr-12 09:00N 35°03' E 136°53'0 0.1
2018-Apr-12 08:30N 35°03' E 136°53'0 0.1
2018-Apr-12 08:00N 35°03' E 136°53'0 0.0
2018-Apr-12 07:30N 35°03' E 136°53'0 0.0
2018-Apr-12 07:00N 35°03' E 136°53'0 0.0
2018-Apr-12 06:30N 35°03' E 136°53'0 0.0
2018-Apr-12 06:00N 35°03' E 136°53'0 0.0
2018-Apr-12 05:30N 35°03' E 136°53'0 0.0
2018-Apr-12 05:00N 35°03' E 136°53'0 0.0
2018-Apr-12 04:30N 35°03' E 136°53'0 0.0
2018-Apr-12 04:00N 35°03' E 136°53'0 0.0
2018-Apr-12 03:30N 35°03' E 136°53'0 0.0
2018-Apr-12 03:00N 35°03' E 136°53'0 0.1
2018-Apr-12 02:30N 35°03' E 136°53'0 0.1
2018-Apr-12 02:00N 35°03' E 136°53'0 0.0
2018-Apr-12 01:30N 35°03' E 136°53'0 0.1
2018-Apr-12 01:00N 35°03' E 136°53'0 0.1
2018-Apr-12 00:30N 35°03' E 136°53'0 0.0
2018-Apr-12 00:00N 35°03' E 136°53'0 0.0
2018-Apr-11 23:30N 35°03' E 136°53'0 0.0
2018-Apr-11 23:00N 35°03' E 136°53'0 0.1
2018-Apr-11 22:30N 35°03' E 136°53'1 3.0
2018-Apr-11 22:00N 35°02' E 136°51'5 9.5
2018-Apr-11 21:30N 34°58' E 136°48'510.8
2018-Apr-11 21:00N 34°53' E 136°46'3 5.3
2018-Apr-11 20:30N 34°52' E 136°43'0 0.1
2018-Apr-11 20:00N 34°52' E 136°43'0 0.0
2018-Apr-11 19:30N 34°52' E 136°43'0 0.0
2018-Apr-11 19:00N 34°52' E 136°43'0 0.0
2018-Apr-11 18:30N 34°52' E 136°43'0 0.0
2018-Apr-11 18:00N 34°52' E 136°43'0 0.0
2018-Apr-11 17:30N 34°52' E 136°43'0 0.0
2018-Apr-11 17:00N 34°52' E 136°43'0 0.0
2018-Apr-11 16:30N 34°52' E 136°43'0 0.0
2018-Apr-11 16:00N 34°52' E 136°43'0 0.2
2018-Apr-11 15:30N 34°52' E 136°43'0 0.0
2018-Apr-11 15:00N 34°52' E 136°43'0 0.0
2018-Apr-11 14:30N 34°52' E 136°43'0 0.0
2018-Apr-11 14:00N 34°52' E 136°43'0 0.0
2018-Apr-11 13:30N 34°52' E 136°43'0 0.0
2018-Apr-11 13:00N 34°52' E 136°43'0 0.0
2018-Apr-11 12:30N 34°52' E 136°43'0 0.0
2018-Apr-11 12:00N 34°52' E 136°43'0 0.0
2018-Apr-11 11:30N 34°52' E 136°43'0 0.0
2018-Apr-11 11:00N 34°52' E 136°43'0 0.0
2018-Apr-11 10:30N 34°52' E 136°43'0 0.0
2018-Apr-11 10:00N 34°52' E 136°43'0 0.0
2018-Apr-11 09:30N 34°52' E 136°43'0 0.0
2018-Apr-11 09:00N 34°52' E 136°43'0 0.0
2018-Apr-11 08:30N 34°52' E 136°43'0 0.0
2018-Apr-11 08:00N 34°52' E 136°43'0 0.0
2018-Apr-11 07:30N 34°52' E 136°43'0 0.0
2018-Apr-11 07:00N 34°52' E 136°43'0 0.0
2018-Apr-11 06:30N 34°52' E 136°43'0 0.0
2018-Apr-11 06:00N 34°52' E 136°43'0 0.1
2018-Apr-11 05:30N 34°52' E 136°43'0 0.0
2018-Apr-11 05:00N 34°52' E 136°43'0 0.1
2018-Apr-11 04:30N 34°52' E 136°43'2 4.7
2018-Apr-11 04:00N 34°50' E 136°43'715.1
2018-Apr-11 03:30N 34°44' E 136°48'917.8
2018-Apr-11 03:00N 34°37' E 136°56'714.1
2018-Apr-11 02:30N 34°33' E 137°02'712.1
2018-Apr-11 01:55N 34°29' E 137°09'615.3
2018-Apr-11 01:30N 34°26' E 137°16'  
Track history (hours):
 
Tides and Currents Weather Stations Pressure Air Temp Water Temp Dewpoint Dewpoint Depression Visibility Wind Speed Wind Dir Waves Ship Positions

Boheme

Last reported at 2018-Apr-21 01:01 UTC. Time now 2018-Apr-21 15:28 UTC.
Position N 01°17' E 103°21'.

Length 227 m; draft 9.3 m.

Type: Cargo ship. MMSI: 563262000.

Date/timePositionNaut miles runAvg speedWind from/ knotsBaromVisibWave heightAir tempDewpointWater temp
2018-Apr-21 01:01N 01°17' E 103°21'013.1
2018-Apr-21 00:59N 01°17' E 103°21'1018.1
2018-Apr-21 00:26N 01°13' E 103°30'817.4
2018-Apr-21 00:00N 01°11' E 103°38'714.7
2018-Apr-20 23:30N 01°09' E 103°45'612.4
2018-Apr-20 23:00N 01°11' E 103°50'3 6.4
2018-Apr-20 22:30N 01°14' E 103°53'510.3
2018-Apr-20 21:59N 01°15' E 103°58'3 1.3
2018-Apr-20 20:03N 01°17' E 103°59'0 0.0
2018-Apr-20 19:45N 01°17' E 103°59'0 0.0
2018-Apr-20 19:27N 01°17' E 103°59'0 0.0
2018-Apr-20 17:30N 01°17' E 103°59'0 0.0
2018-Apr-20 16:51N 01°17' E 103°59'0 0.0
2018-Apr-20 16:27N 01°17' E 103°59'0 0.0
2018-Apr-20 15:54N 01°17' E 103°59'0 0.0
2018-Apr-20 15:09N 01°17' E 103°59'0 0.0
2018-Apr-20 14:39N 01°17' E 103°59'0 0.0
2018-Apr-20 05:57N 01°17' E 103°59'0 0.0
2018-Apr-20 04:54N 01°17' E 103°59'0 0.0
2018-Apr-20 04:30N 01°17' E 103°59'0 0.0
2018-Apr-20 03:57N 01°17' E 103°59'0 0.1
2018-Apr-20 03:06N 01°17' E 103°59'1 4.5
2018-Apr-20 02:56N 01°16' E 103°58'1 1.8
2018-Apr-20 02:25N 01°16' E 103°59'2 4.8
2018-Apr-20 01:59N 01°16' E 104°01'  
2018-Apr-13 10:37N 34°32' E 137°02'1 9.3
2018-Apr-13 10:30N 34°33' E 137°01'713.8
2018-Apr-13 09:58N 34°37' E 136°54'1616.6
2018-Apr-13 09:00N 34°52' E 136°45'714.3
2018-Apr-13 08:30N 34°58' E 136°48'610.8
2018-Apr-13 07:58N 35°03' E 136°53'0 0.5
2018-Apr-13 07:28N 35°03' E 136°53'0 0.0
2018-Apr-13 06:58N 35°03' E 136°53'0 0.0
2018-Apr-13 06:28N 35°03' E 136°53'0 0.0
2018-Apr-13 05:58N 35°03' E 136°53'0 0.0
2018-Apr-13 05:28N 35°03' E 136°53'0 0.0
2018-Apr-13 04:58N 35°03' E 136°53'0 0.0
2018-Apr-13 04:28N 35°03' E 136°53'0 0.1
2018-Apr-13 03:55N 35°03' E 136°53'0 0.1
2018-Apr-13 03:28N 35°03' E 136°53'0 0.0
2018-Apr-13 02:58N 35°03' E 136°53'0 0.0
2018-Apr-13 02:28N 35°03' E 136°53'0 0.0
2018-Apr-13 01:55N 35°03' E 136°53'0 0.0
2018-Apr-13 01:25N 35°03' E 136°53'0 0.0
2018-Apr-13 00:58N 35°03' E 136°53'0 0.0
2018-Apr-13 00:28N 35°03' E 136°53'0 0.0
2018-Apr-12 23:58N 35°03' E 136°53'0 0.0
2018-Apr-12 23:31N 35°03' E 136°53'0 0.0
2018-Apr-12 23:00N 35°03' E 136°53'0 0.0
2018-Apr-12 22:30N 35°03' E 136°53'0 0.0
2018-Apr-12 22:00N 35°03' E 136°53'0 0.0
2018-Apr-12 21:30N 35°03' E 136°53'0 0.0
2018-Apr-12 21:00N 35°03' E 136°53'0 0.0
2018-Apr-12 20:27N 35°03' E 136°53'0 0.0
2018-Apr-12 20:00N 35°03' E 136°53'0 0.0
2018-Apr-12 19:30N 35°03' E 136°53'0 0.0
2018-Apr-12 19:00N 35°03' E 136°53'0 0.0
2018-Apr-12 18:30N 35°03' E 136°53'0 0.1
2018-Apr-12 18:00N 35°03' E 136°53'0 0.1
2018-Apr-12 17:30N 35°03' E 136°53'0 0.0
2018-Apr-12 17:00N 35°03' E 136°53'0 0.1
2018-Apr-12 16:30N 35°03' E 136°53'0 0.0
2018-Apr-12 16:00N 35°03' E 136°53'0 0.0
2018-Apr-12 15:30N 35°03' E 136°53'0 0.0
2018-Apr-12 15:00N 35°03' E 136°53'0 0.0
2018-Apr-12 14:30N 35°03' E 136°53'0 0.0
2018-Apr-12 14:00N 35°03' E 136°53'0 0.1
2018-Apr-12 13:30N 35°03' E 136°53'0 0.1
2018-Apr-12 13:00N 35°03' E 136°53'0 0.1
2018-Apr-12 12:30N 35°03' E 136°53'0 0.1
2018-Apr-12 12:00N 35°03' E 136°53'0 0.1
2018-Apr-12 11:30N 35°03' E 136°53'0 0.0
2018-Apr-12 11:00N 35°03' E 136°53'0 0.1
2018-Apr-12 10:30N 35°03' E 136°53'0 0.1
2018-Apr-12 10:00N 35°03' E 136°53'0 0.0
2018-Apr-12 09:27N 35°03' E 136°53'0 0.0
2018-Apr-12 09:00N 35°03' E 136°53'0 0.1
2018-Apr-12 08:30N 35°03' E 136°53'0 0.1
2018-Apr-12 08:00N 35°03' E 136°53'0 0.0
2018-Apr-12 07:30N 35°03' E 136°53'0 0.0
2018-Apr-12 07:00N 35°03' E 136°53'0 0.0
2018-Apr-12 06:30N 35°03' E 136°53'0 0.0
2018-Apr-12 06:00N 35°03' E 136°53'0 0.0
2018-Apr-12 05:30N 35°03' E 136°53'0 0.0
2018-Apr-12 05:00N 35°03' E 136°53'0 0.0
2018-Apr-12 04:30N 35°03' E 136°53'0 0.0
2018-Apr-12 04:00N 35°03' E 136°53'0 0.0
2018-Apr-12 03:30N 35°03' E 136°53'0 0.0
2018-Apr-12 03:00N 35°03' E 136°53'0 0.1
2018-Apr-12 02:30N 35°03' E 136°53'0 0.1
2018-Apr-12 02:00N 35°03' E 136°53'0 0.0
2018-Apr-12 01:30N 35°03' E 136°53'0 0.1
2018-Apr-12 01:00N 35°03' E 136°53'0 0.1
2018-Apr-12 00:30N 35°03' E 136°53'0 0.0
2018-Apr-12 00:00N 35°03' E 136°53'0 0.0
2018-Apr-11 23:30N 35°03' E 136°53'0 0.0
2018-Apr-11 23:00N 35°03' E 136°53'0 0.1
2018-Apr-11 22:30N 35°03' E 136°53'1 3.0
2018-Apr-11 22:00N 35°02' E 136°51'5 9.5
2018-Apr-11 21:30N 34°58' E 136°48'510.8
2018-Apr-11 21:00N 34°53' E 136°46'3 5.3
2018-Apr-11 20:30N 34°52' E 136°43'0 0.1
2018-Apr-11 20:00N 34°52' E 136°43'0 0.0
2018-Apr-11 19:30N 34°52' E 136°43'0 0.0
2018-Apr-11 19:00N 34°52' E 136°43'0 0.0
2018-Apr-11 18:30N 34°52' E 136°43'0 0.0
2018-Apr-11 18:00N 34°52' E 136°43'0 0.0
2018-Apr-11 17:30N 34°52' E 136°43'0 0.0
2018-Apr-11 17:00N 34°52' E 136°43'0 0.0
2018-Apr-11 16:30N 34°52' E 136°43'0 0.0
2018-Apr-11 16:00N 34°52' E 136°43'0 0.2
2018-Apr-11 15:30N 34°52' E 136°43'0 0.0
2018-Apr-11 15:00N 34°52' E 136°43'0 0.0
2018-Apr-11 14:30N 34°52' E 136°43'0 0.0
2018-Apr-11 14:00N 34°52' E 136°43'0 0.0
2018-Apr-11 13:30N 34°52' E 136°43'0 0.0
2018-Apr-11 13:00N 34°52' E 136°43'0 0.0
2018-Apr-11 12:30N 34°52' E 136°43'0 0.0
2018-Apr-11 12:00N 34°52' E 136°43'0 0.0
2018-Apr-11 11:30N 34°52' E 136°43'0 0.0
2018-Apr-11 11:00N 34°52' E 136°43'0 0.0
2018-Apr-11 10:30N 34°52' E 136°43'0 0.0
2018-Apr-11 10:00N 34°52' E 136°43'0 0.0
2018-Apr-11 09:30N 34°52' E 136°43'0 0.0
2018-Apr-11 09:00N 34°52' E 136°43'0 0.0
2018-Apr-11 08:30N 34°52' E 136°43'0 0.0
2018-Apr-11 08:00N 34°52' E 136°43'0 0.0
2018-Apr-11 07:30N 34°52' E 136°43'0 0.0
2018-Apr-11 07:00N 34°52' E 136°43'0 0.0
2018-Apr-11 06:30N 34°52' E 136°43'0 0.0
2018-Apr-11 06:00N 34°52' E 136°43'0 0.1
2018-Apr-11 05:30N 34°52' E 136°43'0 0.0
2018-Apr-11 05:00N 34°52' E 136°43'0 0.1
2018-Apr-11 04:30N 34°52' E 136°43'2 4.7
2018-Apr-11 04:00N 34°50' E 136°43'715.1
2018-Apr-11 03:30N 34°44' E 136°48'917.8
2018-Apr-11 03:00N 34°37' E 136°56'714.1
2018-Apr-11 02:30N 34°33' E 137°02'712.1
2018-Apr-11 01:55N 34°29' E 137°09'615.3
2018-Apr-11 01:30N 34°26' E 137°16'  

Dump ship's entire track history